Terminal Aerodrome Forecast
Issued by NWS

Home | Current Version | Previous Version | Text Only | Print | Product List | Glossary On
Versions: 1 2 3 4 5 6 7 8 9 10 11
000
FTUS43 KGRB 272300
TAFMTW
TAF
KMTW 272324Z 2800/2824 30009G17KT P6SM BKN012 OVC020
      TEMPO 2800/2802 -RASN SCT015 BKN025
     FM280200 30009KT P6SM SCT015 BKN022
     FM280600 28007KT P6SM SCT020 SCT080
     FM280800 27005KT P6SM SKC
     FM281500 29008KT P6SM SCT035 SCT070
     FM282200 30006KT P6SM FEW070=

USA.gov is the U.S. government's official web portal to all federal, state and local government web resources and services.